Time;durP1;ratioP1;P1;durP2;ratioP2;P2;SDS_P1;SDS_P2;PMS_P1;PMS_P2;Temp;Humidity;BMP_temperature;BMP_pressure;BME280_temperature;BME280_humidity;BME280_pressure;Samples;Min_cycle;Max_cycle;Signal;HPM_P1;HPM_P2
2023/05/15 00:02:26;;;;;;;4.10;3.80;;;13.90;99.50;;;;;;5076397;28;20470;-62
2023/05/15 00:04:54;;;;;;;4.70;4.37;;;13.30;99.60;;;;;;5073161;28;20573;-61
2023/05/15 00:07:21;;;;;;;4.30;4.00;;;13.90;99.60;;;;;;5070794;28;20475;-61
2023/05/15 00:09:48;;;;;;;6.83;4.47;;;14.10;99.00;;;;;;5070856;28;20474;-62
2023/05/15 00:12:15;;;;;;;5.00;4.20;;;14.20;99.50;;;;;;5074512;28;20470;-61
2023/05/15 00:14:42;;;;;;;8.97;4.20;;;14.30;98.70;;;;;;5074657;28;20475;-62
2023/05/15 00:17:09;;;;;;;4.97;4.03;;;14.40;98.70;;;;;;5075262;28;20465;-61
2023/05/15 00:19:35;;;;;;;4.37;4.07;;;14.50;98.30;;;;;;5073416;28;20985;-61
2023/05/15 00:22:04;;;;;;;4.27;3.87;;;14.50;98.60;;;;;;5075384;28;20479;-61
2023/05/15 00:24:31;;;;;;;6.03;4.30;;;14.50;98.80;;;;;;5090277;27;20477;-61
2023/05/15 00:26:59;;;;;;;5.53;5.13;;;14.20;99.40;;;;;;5082802;27;20474;-61
2023/05/15 00:29:26;;;;;;;3.90;3.60;;;14.20;99.60;;;;;;5076272;28;20482;-62
2023/05/15 00:31:53;;;;;;;4.50;4.10;;;14.00;99.50;;;;;;5074975;28;21006;-61
2023/05/15 00:34:21;;;;;;;4.10;3.77;;;14.00;99.70;;;;;;5076332;28;20469;-61
2023/05/15 00:36:48;;;;;;;4.53;4.23;;;13.90;99.90;;;;;;5076004;28;20595;-61
2023/05/15 00:39:17;;;;;;;4.43;4.03;;;13.90;99.90;;;;;;5074506;28;20962;-61
2023/05/15 00:41:45;;;;;;;3.93;3.63;;;13.80;99.80;;;;;;5097567;27;20527;-61
2023/05/15 00:44:12;;;;;;;4.23;3.90;;;13.70;99.90;;;;;;5073047;28;20614;-61
2023/05/15 00:46:40;;;;;;;4.30;4.00;;;13.70;99.90;;;;;;5089338;27;20950;-61
2023/05/15 00:49:12;;;;;;;4.70;4.30;;;13.80;99.90;;;;;;5097533;27;20865;-61
2023/05/15 00:51:40;;;;;;;6.00;4.40;;;13.80;99.70;;;;;;5074238;28;20549;-61
2023/05/15 00:54:08;;;;;;;5.13;4.63;;;13.80;99.90;;;;;;5082970;27;20796;-61
2023/05/15 00:56:37;;;;;;;8.43;4.97;;;13.70;99.90;;;;;;5087054;27;20485;-61
2023/05/15 00:59:04;;;;;;;5.87;5.20;;;13.80;99.50;;;;;;5070954;28;20482;-61
2023/05/15 01:01:33;;;;;;;11.83;5.33;;;13.70;99.50;;;;;;5070758;27;20980;-61
2023/05/15 01:04:01;;;;;;;6.50;6.00;;;13.60;99.80;;;;;;5089439;27;21084;-61
2023/05/15 01:06:28;;;;;;;5.03;4.53;;;13.50;99.90;;;;;;5073339;28;20534;-61
2023/05/15 01:08:57;;;;;;;7.07;6.47;;;13.50;99.80;;;;;;5051519;28;20927;-62
2023/05/15 01:11:34;;;;;;;11.33;5.97;;;13.50;99.90;;;;;;5077420;28;20473;-61
2023/05/15 01:14:04;;;;;;;6.90;6.30;;;13.40;99.90;;;;;;5067669;27;20615;-61
2023/05/15 01:16:31;;;;;;;5.70;5.07;;;13.40;99.90;;;;;;5089012;27;20890;-61
2023/05/15 01:18:57;;;;;;;6.23;5.60;;;13.50;99.90;;;;;;5092425;27;20487;-61
2023/05/15 01:21:56;;;;;;;5.83;5.33;;;13.60;99.90;;;;;;5073341;28;20850;-61
2023/05/15 01:24:42;;;;;;;9.10;5.03;;;13.60;99.20;;;;;;5061515;28;20481;-61
2023/05/15 01:27:30;;;;;;;6.07;4.73;;;13.60;99.50;;;;;;5064916;28;20953;-61
2023/05/15 01:30:06;;;;;;;5.93;5.40;;;13.50;99.90;;;;;;5064519;27;20494;-61
2023/05/15 01:32:46;;;;;;;4.70;4.30;;;13.50;99.80;;;;;;5070253;28;20477;-62
2023/05/15 01:35:21;;;;;;;4.83;4.43;;;13.60;99.60;;;;;;5080552;28;21005;-61
2023/05/15 01:37:51;;;;;;;5.50;5.10;;;13.70;99.10;;;;;;5076213;28;20920;-61
2023/05/15 01:40:20;;;;;;;4.67;4.37;;;13.70;99.40;;;;;;5083974;28;20481;-61
2023/05/15 01:42:55;;;;;;;22.43;5.73;;;13.80;99.40;;;;;;5055428;28;20473;-61
2023/05/15 01:45:28;;;;;;;7.23;5.40;;;13.80;99.00;;;;;;5078790;28;21192;-61
2023/05/15 01:47:56;;;;;;;6.30;5.30;;;13.80;99.20;;;;;;5097915;27;20497;-61
2023/05/15 01:50:23;;;;;;;4.53;4.20;;;13.80;99.10;;;;;;5090019;27;21064;-61
2023/05/15 01:52:54;;;;;;;6.00;5.40;;;13.80;99.10;;;;;;5100420;27;20503;-62
2023/05/15 01:55:23;;;;;;;4.70;4.30;;;13.70;99.20;;;;;;5079971;28;20833;-60
2023/05/15 01:57:52;;;;;;;5.27;4.80;;;13.80;99.00;;;;;;5095727;27;20468;-61
2023/05/15 02:00:20;;;;;;;5.63;5.03;;;14.00;99.20;;;;;;5107353;27;20481;-61
2023/05/15 02:02:47;;;;;;;4.60;4.20;;;13.70;99.00;;;;;;5080041;28;20461;-61
2023/05/15 02:05:15;;;;;;;5.07;4.63;;;13.60;99.00;;;;;;5082325;27;20466;-61
2023/05/15 02:07:43;;;;;;;5.07;4.57;;;13.70;98.80;;;;;;5087886;27;20498;-61
2023/05/15 02:10:12;;;;;;;5.00;4.60;;;13.60;98.50;;;;;;5094775;27;20478;-61
2023/05/15 02:12:41;;;;;;;5.27;4.77;;;13.70;98.70;;;;;;5093057;28;20478;-61
2023/05/15 02:15:10;;;;;;;5.23;4.73;;;13.60;98.60;;;;;;5079116;27;20470;-61
2023/05/15 02:17:37;;;;;;;4.33;3.93;;;13.60;98.10;;;;;;5073651;28;20478;-61
2023/05/15 02:20:06;;;;;;;4.23;3.83;;;13.60;98.30;;;;;;5069416;28;20486;-61
2023/05/15 02:22:33;;;;;;;6.80;5.10;;;13.60;98.60;;;;;;5071700;27;20496;-61
2023/05/15 02:25:00;;;;;;;7.43;5.27;;;13.60;98.60;;;;;;5111518;27;20479;-61
2023/05/15 02:27:28;;;;;;;5.70;4.57;;;13.60;98.50;;;;;;5093297;27;20500;-61
2023/05/15 02:30:06;;;;;;;7.23;5.13;;;13.50;98.50;;;;;;5074902;28;20487;-61
2023/05/15 02:32:43;;;;;;;4.93;4.53;;;13.50;98.80;;;;;;5096782;27;20478;-61
2023/05/15 02:35:22;;;;;;;5.40;4.97;;;13.50;98.70;;;;;;5085559;28;20553;-61
2023/05/15 02:37:55;;;;;;;9.93;4.83;;;13.50;98.30;;;;;;5069025;28;20489;-61
2023/05/15 02:40:24;;;;;;;5.67;4.73;;;13.50;98.60;;;;;;5076004;28;20577;-61
2023/05/15 02:42:53;;;;;;;6.07;5.47;;;13.50;98.70;;;;;;5060768;28;20487;-61
2023/05/15 02:45:22;;;;;;;6.13;5.10;;;13.60;98.60;;;;;;5097308;27;20486;-61
2023/05/15 02:47:50;;;;;;;6.63;5.93;;;13.50;98.90;;;;;;5076886;28;20478;-61
2023/05/15 02:50:18;;;;;;;5.00;4.47;;;13.60;98.70;;;;;;5056240;27;21164;-61
2023/05/15 02:52:45;;;;;;;5.00;4.53;;;13.50;98.80;;;;;;5095745;27;20476;-61
2023/05/15 02:55:12;;;;;;;4.90;4.50;;;13.50;99.10;;;;;;5084914;27;20483;-61
2023/05/15 02:57:39;;;;;;;8.83;4.97;;;13.50;98.90;;;;;;5079336;28;20492;-61
2023/05/15 03:00:10;;;;;;;5.87;5.27;;;13.50;99.10;;;;;;5079442;28;20860;-62
2023/05/15 03:02:37;;;;;;;4.90;4.30;;;13.30;99.20;;;;;;5080917;28;20489;-61
2023/05/15 03:05:07;;;;;;;5.23;4.77;;;13.30;99.30;;;;;;5082712;28;20470;-61
2023/05/15 03:07:34;;;;;;;5.20;4.60;;;13.00;99.60;;;;;;5076621;28;20480;-60
2023/05/15 03:10:01;;;;;;;5.87;5.37;;;12.80;99.90;;;;;;5079232;28;20536;-61
2023/05/15 03:12:28;;;;;;;6.00;4.40;;;12.80;99.90;;;;;;5081187;28;20485;-61
2023/05/15 03:14:54;;;;;;;6.03;5.43;;;12.80;99.90;;;;;;5094029;27;20500;-61
2023/05/15 03:17:21;;;;;;;5.63;4.83;;;12.80;99.90;;;;;;5075068;28;20479;-60
2023/05/15 03:19:48;;;;;;;5.90;5.50;;;12.90;99.90;;;;;;5064798;28;20700;-61
2023/05/15 03:22:16;;;;;;;4.67;4.30;;;13.00;99.90;;;;;;5089924;28;20482;-61
2023/05/15 03:24:43;;;;;;;5.30;4.90;;;13.00;99.90;;;;;;5073407;28;20474;-61
2023/05/15 03:27:10;;;;;;;6.27;5.70;;;13.00;99.90;;;;;;5085267;28;20482;-61
2023/05/15 03:29:37;;;;;;;7.43;5.70;;;13.00;99.90;;;;;;5078518;27;20472;-62
2023/05/15 03:32:04;;;;;;;6.17;5.57;;;13.00;99.90;;;;;;5069452;27;20481;-61
2023/05/15 03:34:32;;;;;;;5.83;4.50;;;13.00;99.90;;;;;;5076459;28;20889;-62
2023/05/15 03:36:58;;;;;;;6.30;5.80;;;13.10;99.90;;;;;;5082239;28;20798;-61
2023/05/15 03:39:27;;;;;;;5.50;5.07;;;13.10;99.90;;;;;;5074071;28;20483;-61
2023/05/15 03:41:53;;;;;;;7.40;6.70;;;13.00;99.90;;;;;;5093341;27;20523;-61
2023/05/15 03:44:20;;;;;;;7.57;5.60;;;12.80;99.90;;;;;;5068261;27;20477;-61
2023/05/15 03:46:47;;;;;;;6.10;5.60;;;12.80;99.90;;;;;;5074376;27;20478;-62
2023/05/15 03:49:14;;;;;;;6.07;4.93;;;12.70;99.90;;;;;;5076022;28;20477;-60
2023/05/15 03:51:41;;;;;;;9.77;5.80;;;12.70;99.90;;;;;;5068800;28;20508;-60
2023/05/15 03:54:08;;;;;;;7.20;5.87;;;12.70;99.90;;;;;;5073753;28;20478;-60
2023/05/15 03:56:37;;;;;;;8.40;5.17;;;12.80;99.90;;;;;;5076456;28;20970;-61
2023/05/15 03:59:04;;;;;;;5.10;4.70;;;12.90;99.90;;;;;;5073556;28;20487;-60
2023/05/15 04:01:31;;;;;;;5.33;4.83;;;13.10;99.90;;;;;;5080819;27;20749;-61
2023/05/15 04:03:57;;;;;;;6.17;5.67;;;13.70;99.90;;;;;;5060632;28;20488;-61
2023/05/15 04:06:24;;;;;;;5.73;5.13;;;13.20;99.90;;;;;;5090398;27;20552;-60
2023/05/15 04:08:51;;;;;;;6.30;5.70;;;13.30;99.90;;;;;;5076327;27;20472;-62
2023/05/15 04:11:18;;;;;;;6.20;5.70;;;13.20;99.90;;;;;;5098720;27;20484;-61
2023/05/15 04:13:46;;;;;;;6.63;5.90;;;13.30;99.90;;;;;;5090651;27;20471;-61
2023/05/15 04:16:13;;;;;;;6.33;5.70;;;13.20;99.90;;;;;;5079519;28;20489;-61
2023/05/15 04:18:40;;;;;;;5.33;4.80;;;13.10;99.90;;;;;;5083750;28;20896;-61
2023/05/15 04:21:07;;;;;;;12.03;5.00;;;13.00;99.90;;;;;;5068469;28;20760;-61
2023/05/15 04:23:33;;;;;;;5.73;4.63;;;13.00;99.90;;;;;;5053650;28;20485;-61
2023/05/15 04:26:01;;;;;;;7.13;5.97;;;13.00;99.90;;;;;;5077887;27;20637;-61
2023/05/15 04:28:28;;;;;;;5.37;4.73;;;12.90;99.90;;;;;;5099398;27;20473;-61
2023/05/15 04:30:57;;;;;;;5.33;4.90;;;12.90;99.90;;;;;;5076611;27;20493;-61
2023/05/15 04:33:24;;;;;;;7.70;5.67;;;13.00;99.90;;;;;;5068125;28;20481;-61
2023/05/15 04:35:51;;;;;;;13.83;7.60;;;13.10;99.90;;;;;;5095913;27;20485;-61
2023/05/15 04:38:18;;;;;;;6.27;5.67;;;13.10;99.90;;;;;;5083737;28;20489;-61
2023/05/15 04:40:45;;;;;;;8.50;6.30;;;13.30;99.90;;;;;;5088254;27;20741;-61
2023/05/15 04:43:12;;;;;;;9.30;8.27;;;13.10;99.90;;;;;;5066709;28;20493;-60
2023/05/15 04:45:39;;;;;;;11.67;7.07;;;13.00;99.90;;;;;;5062365;28;20494;-61
2023/05/15 04:48:08;;;;;;;11.73;6.63;;;12.90;99.90;;;;;;5072692;28;20493;-61
2023/05/15 04:50:35;;;;;;;6.67;6.07;;;12.90;99.90;;;;;;5078778;28;20480;-61
2023/05/15 04:53:02;;;;;;;9.30;6.17;;;12.90;99.90;;;;;;5065687;28;20482;-61
2023/05/15 04:55:29;;;;;;;7.57;6.87;;;12.90;99.90;;;;;;5091151;27;20988;-61
2023/05/15 04:57:56;;;;;;;7.90;7.00;;;12.90;99.90;;;;;;5095673;28;20483;-61
2023/05/15 05:00:23;;;;;;;8.43;7.20;;;13.00;99.90;;;;;;5076410;27;20484;-61
2023/05/15 05:02:50;;;;;;;7.57;6.83;;;13.00;99.90;;;;;;5099849;28;20474;-61
2023/05/15 05:05:19;;;;;;;7.10;6.40;;;13.10;99.90;;;;;;5088883;27;20985;-61
2023/05/15 05:07:46;;;;;;;8.63;6.63;;;13.10;99.90;;;;;;5078600;28;20522;-60
2023/05/15 05:10:13;;;;;;;10.70;8.00;;;13.10;99.90;;;;;;5065695;28;20478;-61
2023/05/15 05:12:40;;;;;;;10.50;7.70;;;13.10;99.90;;;;;;5090140;27;20548;-61
2023/05/15 05:15:08;;;;;;;7.43;6.73;;;13.20;99.90;;;;;;5071349;27;20576;-61
2023/05/15 05:17:35;;;;;;;8.50;7.13;;;13.20;99.90;;;;;;5070445;28;20501;-60
2023/05/15 05:20:03;;;;;;;10.13;8.70;;;13.20;99.90;;;;;;5072357;27;20507;-61
2023/05/15 05:22:32;;;;;;;10.27;9.23;;;13.20;99.90;;;;;;5120761;27;20559;-61
2023/05/15 05:24:58;;;;;;;11.80;9.70;;;13.30;99.90;;;;;;5080801;27;20498;-61
2023/05/15 05:27:25;;;;;;;10.03;9.00;;;13.50;99.90;;;;;;5105067;27;21040;-61
2023/05/15 05:29:53;;;;;;;11.73;9.90;;;13.60;99.90;;;;;;5078986;28;20561;-61
2023/05/15 05:32:19;;;;;;;11.87;9.47;;;13.70;99.90;;;;;;5077193;28;20486;-61
2023/05/15 05:34:46;;;;;;;10.20;9.20;;;13.90;99.90;;;;;;5075075;28;20989;-61
2023/05/15 05:37:13;;;;;;;11.20;9.17;;;14.00;99.90;;;;;;5085743;27;20468;-61
2023/05/15 05:39:41;;;;;;;10.57;9.40;;;14.10;99.90;;;;;;5081816;27;20841;-61
2023/05/15 05:42:08;;;;;;;13.17;9.77;;;14.10;99.90;;;;;;5101296;27;20485;-61
2023/05/15 05:44:35;;;;;;;12.60;10.03;;;14.10;99.90;;;;;;5087298;28;20469;-61
2023/05/15 05:47:02;;;;;;;10.40;9.30;;;14.00;99.90;;;;;;5084098;27;20466;-61
2023/05/15 05:49:28;;;;;;;12.90;10.07;;;13.90;99.90;;;;;;5093503;27;20472;-61
2023/05/15 05:51:55;;;;;;;12.00;10.17;;;13.90;99.90;;;;;;5093824;27;20638;-61
2023/05/15 05:54:22;;;;;;;15.60;11.53;;;14.10;99.90;;;;;;5108438;27;20480;-61
2023/05/15 05:56:50;;;;;;;11.47;10.33;;;14.20;99.90;;;;;;5102957;27;20484;-61
2023/05/15 05:59:17;;;;;;;10.73;9.57;;;14.40;99.90;;;;;;5079240;27;20481;-61
2023/05/15 06:01:44;;;;;;;13.97;10.70;;;14.50;99.90;;;;;;5069350;28;20467;-61
2023/05/15 06:04:11;;;;;;;12.70;11.20;;;14.50;99.90;;;;;;5101512;27;20565;-61
2023/05/15 06:06:38;;;;;;;10.27;9.17;;;14.50;99.90;;;;;;5112011;27;20474;-62
2023/05/15 06:09:05;;;;;;;11.47;10.00;;;14.60;99.90;;;;;;5086326;27;20887;-61
2023/05/15 06:11:32;;;;;;;14.50;10.17;;;14.60;99.90;;;;;;5100215;27;20967;-61
2023/05/15 06:14:00;;;;;;;13.37;11.87;;;14.50;99.90;;;;;;5092097;27;20477;-61
2023/05/15 06:16:27;;;;;;;14.60;11.73;;;14.50;99.90;;;;;;5096774;27;20479;-62
2023/05/15 06:18:54;;;;;;;11.93;10.63;;;14.50;99.90;;;;;;5062442;28;21322;-62
2023/05/15 06:21:21;;;;;;;13.43;10.70;;;15.00;99.90;;;;;;5088392;27;20474;-61
2023/05/15 06:23:48;;;;;;;11.90;10.47;;;15.00;99.90;;;;;;5089506;27;20924;-61
2023/05/15 06:26:15;;;;;;;16.90;11.63;;;15.40;99.90;;;;;;5082608;27;20875;-61
2023/05/15 06:28:41;;;;;;;12.03;10.30;;;15.40;99.90;;;;;;5078094;27;20838;-62
2023/05/15 06:31:10;;;;;;;12.07;10.77;;;15.60;99.90;;;;;;5072600;28;20478;-61
2023/05/15 06:33:37;;;;;;;11.73;10.60;;;15.60;99.90;;;;;;5068873;28;20486;-61
2023/05/15 06:36:04;;;;;;;12.03;9.83;;;15.60;99.90;;;;;;5070565;27;20568;-62
2023/05/15 06:38:31;;;;;;;11.50;10.40;;;15.70;99.90;;;;;;5081639;27;20482;-62
2023/05/15 06:40:58;;;;;;;11.23;10.13;;;15.80;99.90;;;;;;5099742;27;20614;-62
2023/05/15 06:43:25;;;;;;;11.87;10.30;;;16.00;99.90;;;;;;5086490;27;20517;-61
2023/05/15 06:45:51;;;;;;;10.90;9.37;;;16.00;99.90;;;;;;5074230;27;21418;-61
2023/05/15 06:48:20;;;;;;;9.80;8.80;;;16.20;99.90;;;;;;5085276;27;20492;-62
2023/05/15 06:50:46;;;;;;;11.40;10.20;;;16.60;99.90;;;;;;5109533;27;20480;-62
2023/05/15 06:53:13;;;;;;;11.50;9.83;;;16.60;99.90;;;;;;5069434;27;20988;-62
2023/05/15 06:55:40;;;;;;;12.03;10.93;;;17.10;99.90;;;;;;5107677;27;20473;-62
2023/05/15 06:58:07;;;;;;;9.33;8.33;;;17.10;99.90;;;;;;5080974;27;20829;-61
2023/05/15 07:00:34;;;;;;;9.43;8.00;;;17.20;97.50;;;;;;5082129;28;20480;-61
2023/05/15 07:03:00;;;;;;;11.80;6.20;;;17.20;98.40;;;;;;5092045;27;20473;-61
2023/05/15 07:05:29;;;;;;;7.90;7.10;;;17.30;96.60;;;;;;5081810;27;20476;-62
2023/05/15 07:07:56;;;;;;;12.17;8.43;;;17.60;98.40;;;;;;5086328;27;20471;-62
2023/05/15 07:10:23;;;;;;;7.27;6.57;;;17.70;97.90;;;;;;5065217;28;20487;-62
2023/05/15 07:12:49;;;;;;;7.03;6.40;;;18.10;98.10;;;;;;5067660;28;20470;-64
2023/05/15 07:15:16;;;;;;;6.00;5.40;;;18.80;96.40;;;;;;5077806;28;20477;-62
2023/05/15 07:17:43;;;;;;;5.43;4.97;;;19.00;96.20;;;;;;5081371;27;20474;-62
2023/05/15 07:20:11;;;;;;;6.67;5.47;;;19.60;94.30;;;;;;5089053;27;21437;-62
2023/05/15 07:22:39;;;;;;;5.90;5.00;;;19.70;94.50;;;;;;5099748;27;20970;-62
2023/05/15 07:25:06;;;;;;;7.63;5.33;;;20.10;94.40;;;;;;5105305;27;20504;-62
2023/05/15 07:27:33;;;;;;;9.40;6.30;;;20.30;94.30;;;;;;5089067;27;20477;-62
2023/05/15 07:30:02;;;;;;;6.80;6.20;;;20.40;94.50;;;;;;5088967;28;20938;-62
2023/05/15 07:32:29;;;;;;;6.43;5.63;;;20.80;94.00;;;;;;5079414;28;20943;-63
2023/05/15 07:34:55;;;;;;;6.50;5.90;;;20.80;94.10;;;;;;5050742;28;20478;-63
2023/05/15 07:37:22;;;;;;;6.50;5.87;;;20.80;91.80;;;;;;5085436;27;20491;-63
2023/05/15 07:39:50;;;;;;;7.00;6.33;;;20.60;91.80;;;;;;5079865;28;20497;-62
2023/05/15 07:42:17;;;;;;;23.60;15.27;;;20.60;92.70;;;;;;5094387;28;20474;-62
2023/05/15 07:44:44;;;;;;;6.50;5.90;;;20.50;92.20;;;;;;5102020;27;20464;-63
2023/05/15 07:47:11;;;;;;;6.50;5.67;;;20.60;92.80;;;;;;5098120;27;20488;-63
2023/05/15 07:49:38;;;;;;;6.70;6.10;;;20.50;92.80;;;;;;5086637;28;20778;-63
2023/05/15 07:52:05;;;;;;;7.20;6.50;;;20.30;92.20;;;;;;5075078;27;21277;-62
2023/05/15 07:54:32;;;;;;;13.33;6.47;;;20.20;93.20;;;;;;5089390;27;20481;-64
2023/05/15 07:57:00;;;;;;;7.43;6.20;;;20.10;93.00;;;;;;5103293;27;20946;-63
2023/05/15 07:59:27;;;;;;;6.40;5.90;;;20.00;93.40;;;;;;5067830;28;21137;-64
2023/05/15 08:01:54;;;;;;;7.00;6.30;;;20.00;93.30;;;;;;5066715;28;20462;-63
2023/05/15 08:04:21;;;;;;;7.83;6.20;;;19.90;94.00;;;;;;5083999;27;20484;-64
2023/05/15 08:06:47;;;;;;;7.50;6.80;;;20.00;94.10;;;;;;5083416;27;20474;-63
2023/05/15 08:09:14;;;;;;;8.10;6.40;;;19.90;92.40;;;;;;5121017;27;20481;-63
2023/05/15 08:11:41;;;;;;;7.13;6.50;;;20.00;93.80;;;;;;5077620;27;20476;-64
2023/05/15 08:14:09;;;;;;;6.63;6.03;;;19.90;94.50;;;;;;5073515;28;20464;-63
2023/05/15 08:16:36;;;;;;;9.00;6.60;;;20.10;93.90;;;;;;5085758;28;20470;-64
2023/05/15 08:19:05;;;;;;;7.47;6.30;;;20.30;93.70;;;;;;5060034;28;20485;-63
2023/05/15 08:21:32;;;;;;;6.70;6.10;;;20.60;92.70;;;;;;5070305;28;20542;-63
2023/05/15 08:24:00;;;;;;;7.13;6.53;;;21.00;93.60;;;;;;5086019;27;20473;-65
2023/05/15 08:26:27;;;;;;;7.87;7.00;;;20.70;91.70;;;;;;5074620;28;20482;-64
2023/05/15 08:28:54;;;;;;;7.27;6.67;;;20.90;92.40;;;;;;5090861;27;20484;-62
2023/05/15 08:31:22;;;;;;;9.13;6.43;;;21.00;93.20;;;;;;5107195;27;21031;-63
2023/05/15 08:33:49;;;;;;;7.33;6.40;;;21.00;92.40;;;;;;5097287;28;20471;-63
2023/05/15 08:36:17;;;;;;;6.13;5.53;;;20.90;92.10;;;;;;5082718;28;20837;-63
2023/05/15 08:38:44;;;;;;;6.17;5.57;;;20.90;91.10;;;;;;5079418;27;20506;-63
2023/05/15 08:41:17;;;;;;;6.20;5.70;;;21.20;93.20;;;;;;5100760;27;20485;-63
2023/05/15 08:43:45;;;;;;;5.70;5.20;;;21.60;93.30;;;;;;5089157;28;20476;-63
2023/05/15 08:46:12;;;;;;;5.37;4.87;;;22.10;92.10;;;;;;5094539;27;20480;-63
2023/05/15 08:48:42;;;;;;;7.73;6.43;;;22.20;91.60;;;;;;5119015;27;20507;-63
2023/05/15 08:51:10;;;;;;;8.00;6.23;;;22.20;91.90;;;;;;5090970;27;21125;-63
2023/05/15 08:53:37;;;;;;;11.57;6.60;;;22.40;91.90;;;;;;5094534;28;20477;-63
2023/05/15 08:56:05;;;;;;;7.43;6.70;;;22.40;92.10;;;;;;5080664;27;20519;-63
2023/05/15 08:58:33;;;;;;;7.03;6.40;;;22.20;92.30;;;;;;5085648;28;20453;-63
2023/05/15 09:01:01;;;;;;;7.00;6.27;;;22.00;93.10;;;;;;5077679;28;20500;-63
2023/05/15 09:03:28;;;;;;;7.20;6.50;;;21.70;92.10;;;;;;5070701;28;20460;-63
2023/05/15 09:05:56;;;;;;;7.57;6.97;;;21.60;92.00;;;;;;5106158;27;20458;-63
2023/05/15 09:08:27;;;;;;;15.53;7.00;;;21.50;92.10;;;;;;5095295;27;20498;-63
2023/05/15 09:10:56;;;;;;;6.30;5.70;;;21.10;91.40;;;;;;5084752;28;21257;-63
2023/05/15 09:13:22;;;;;;;6.97;6.37;;;20.90;92.00;;;;;;5078805;28;20847;-63
2023/05/15 09:15:50;;;;;;;7.43;6.73;;;20.90;92.40;;;;;;5079830;28;20440;-63
2023/05/15 09:18:17;;;;;;;7.83;5.53;;;20.90;92.50;;;;;;5068402;28;20448;-64
2023/05/15 09:20:44;;;;;;;7.20;6.60;;;21.00;93.10;;;;;;5094748;27;20451;-64
2023/05/15 09:23:25;;;;;;;6.23;5.63;;;21.40;92.00;;;;;;5069472;27;20447;-63
2023/05/15 09:25:54;;;;;;;6.37;5.87;;;21.40;91.90;;;;;;5079898;28;20495;-64
2023/05/15 09:28:29;;;;;;;6.53;4.80;;;21.50;91.70;;;;;;5081282;27;20980;-63
2023/05/15 09:31:00;;;;;;;5.97;5.23;;;21.90;90.90;;;;;;5081977;27;21056;-64
2023/05/15 09:33:29;;;;;;;5.70;4.43;;;22.10;91.30;;;;;;5077690;28;20520;-64
2023/05/15 09:35:56;;;;;;;6.00;5.50;;;22.20;91.00;;;;;;5088954;27;20954;-64
2023/05/15 09:38:24;;;;;;;6.67;6.00;;;22.50;90.20;;;;;;5095516;28;20973;-64
2023/05/15 09:41:00;;;;;;;6.30;5.80;;;22.50;88.70;;;;;;5074886;27;20822;-64
2023/05/15 09:43:28;;;;;;;5.50;5.00;;;22.60;88.90;;;;;;5084074;27;20509;-64
2023/05/15 09:45:55;;;;;;;7.50;6.90;;;22.50;88.60;;;;;;5085085;28;20534;-64
2023/05/15 09:48:22;;;;;;;7.40;6.80;;;21.80;90.20;;;;;;5070786;28;20516;-64
2023/05/15 09:50:49;;;;;;;6.63;6.10;;;21.40;89.90;;;;;;5079286;27;20448;-64
2023/05/15 09:53:16;;;;;;;6.27;5.77;;;21.00;91.00;;;;;;5071170;28;20489;-63
2023/05/15 09:55:45;;;;;;;6.27;5.67;;;21.10;90.30;;;;;;5039863;28;20879;-64
2023/05/15 09:58:14;;;;;;;6.50;6.00;;;21.30;90.50;;;;;;5057718;27;20459;-64
2023/05/15 10:00:42;;;;;;;6.67;6.07;;;21.20;90.10;;;;;;5086295;27;20557;-63
2023/05/15 10:03:10;;;;;;;6.00;5.50;;;21.20;90.40;;;;;;5084695;28;20479;-64
2023/05/15 10:05:37;;;;;;;6.23;5.63;;;21.10;91.20;;;;;;5074193;27;21060;-64
2023/05/15 10:08:04;;;;;;;6.97;6.27;;;21.10;90.60;;;;;;5080619;27;20478;-63
2023/05/15 10:10:34;;;;;;;7.00;6.40;;;21.10;92.10;;;;;;5077861;28;20531;-64
2023/05/15 10:13:04;;;;;;;7.87;7.00;;;21.10;91.40;;;;;;5051128;27;21042;-63
2023/05/15 10:15:32;;;;;;;8.87;7.97;;;21.20;91.50;;;;;;5106229;27;20483;-63
2023/05/15 10:18:00;;;;;;;8.70;7.80;;;21.20;92.00;;;;;;5068256;28;20486;-63
2023/05/15 10:20:27;;;;;;;6.80;6.20;;;21.20;92.80;;;;;;5066199;28;20464;-63
2023/05/15 10:22:56;;;;;;;7.83;7.03;;;21.20;93.70;;;;;;5081264;27;20902;-63
2023/05/15 10:25:33;;;;;;;8.53;7.73;;;21.10;93.10;;;;;;5074544;28;20490;-63
2023/05/15 10:28:00;;;;;;;12.40;8.80;;;21.00;94.50;;;;;;5063594;28;20493;-62
2023/05/15 10:30:28;;;;;;;9.23;7.60;;;21.00;94.60;;;;;;5079202;28;20485;-63
2023/05/15 10:32:56;;;;;;;8.70;7.90;;;21.00;93.90;;;;;;5079672;27;20596;-63
2023/05/15 10:35:23;;;;;;;10.17;7.60;;;21.10;94.70;;;;;;5078397;27;20456;-63
2023/05/15 10:37:50;;;;;;;9.60;6.83;;;21.10;94.80;;;;;;5107065;27;20481;-63
2023/05/15 10:40:17;;;;;;;6.37;5.87;;;21.10;94.60;;;;;;5084501;28;20460;-63
2023/05/15 10:42:46;;;;;;;5.93;5.33;;;20.50;90.80;;;;;;5067330;28;21047;-63
2023/05/15 10:45:13;;;;;;;6.33;5.77;;;19.40;91.00;;;;;;5071737;28;21003;-63
2023/05/15 10:47:43;;;;;;;9.30;6.13;;;19.10;91.40;;;;;;5066815;28;21008;-63
2023/05/15 10:50:11;;;;;;;6.50;5.80;;;18.80;92.00;;;;;;5077342;27;20481;-63
2023/05/15 10:52:39;;;;;;;5.63;5.10;;;18.20;92.60;;;;;;5091112;27;20989;-63
2023/05/15 10:55:08;;;;;;;6.53;5.93;;;17.50;93.50;;;;;;5077253;27;20590;-63
2023/05/15 10:57:35;;;;;;;7.10;6.40;;;17.30;94.00;;;;;;5091576;27;20827;-63
2023/05/15 11:00:04;;;;;;;7.57;6.40;;;17.10;94.20;;;;;;5081391;27;20908;-63
2023/05/15 11:02:38;;;;;;;6.87;6.27;;;17.00;94.50;;;;;;5098777;27;20485;-64
2023/05/15 11:05:07;;;;;;;8.10;7.30;;;16.90;94.60;;;;;;5080239;27;20487;-63
2023/05/15 11:07:34;;;;;;;8.57;7.77;;;17.10;95.60;;;;;;5081717;27;20522;-63
2023/05/15 11:10:21;;;;;;;10.60;7.57;;;17.00;94.90;;;;;;5074195;27;20489;-62
2023/05/15 11:12:58;;;;;;;9.23;6.30;;;16.80;95.10;;;;;;5094157;27;20493;-63
2023/05/15 11:15:25;;;;;;;8.97;7.83;;;16.50;95.80;;;;;;5079525;28;20635;-63
2023/05/15 11:18:05;;;;;;;9.23;8.33;;;16.40;96.60;;;;;;5083358;28;21080;-63
2023/05/15 11:20:38;;;;;;;9.67;8.63;;;16.30;97.70;;;;;;5080397;27;20491;-63
2023/05/15 11:23:05;;;;;;;9.80;8.80;;;16.20;98.10;;;;;;5071119;28;20802;-63
2023/05/15 11:25:32;;;;;;;15.10;10.57;;;16.10;99.90;;;;;;5060764;28;20826;-63
2023/05/15 11:27:59;;;;;;;14.00;9.97;;;16.00;99.90;;;;;;5068680;28;20756;-63
2023/05/15 11:30:45;;;;;;;12.30;10.10;;;15.90;99.90;;;;;;5060807;28;20902;-63
2023/05/15 11:33:13;;;;;;;11.63;10.00;;;15.90;99.90;;;;;;5071730;27;20492;-63
2023/05/15 11:35:45;;;;;;;12.80;10.70;;;15.80;99.90;;;;;;5083992;27;20472;-63
2023/05/15 11:38:14;;;;;;;11.67;9.30;;;15.80;99.90;;;;;;5085398;27;20471;-62
2023/05/15 11:40:46;;;;;;;9.57;8.40;;;15.90;99.90;;;;;;5087561;27;20478;-63
2023/05/15 11:43:20;;;;;;;10.20;9.30;;;15.90;99.90;;;;;;5049836;28;20482;-63
2023/05/15 11:45:51;;;;;;;8.80;7.90;;;16.00;99.90;;;;;;5104024;27;21029;-63
2023/05/15 11:48:19;;;;;;;13.13;9.30;;;16.50;99.90;;;;;;5092222;28;20526;-63
2023/05/15 11:50:47;;;;;;;10.97;8.57;;;16.60;99.90;;;;;;5073732;28;20481;-63
2023/05/15 11:53:14;;;;;;;9.33;8.40;;;16.70;99.90;;;;;;5063594;27;20568;-63
2023/05/15 11:55:44;;;;;;;10.10;8.53;;;17.00;99.90;;;;;;5089400;27;20906;-63
2023/05/15 11:58:14;;;;;;;10.50;7.57;;;17.10;99.90;;;;;;5092868;27;20471;-63
2023/05/15 12:00:42;;;;;;;7.43;6.73;;;17.40;99.60;;;;;;5054463;28;20512;-63
2023/05/15 12:03:15;;;;;;;8.53;7.67;;;17.60;99.30;;;;;;5088126;28;20504;-63
2023/05/15 12:05:43;;;;;;;9.13;8.07;;;17.60;99.90;;;;;;5083119;27;20594;-63
2023/05/15 12:08:12;;;;;;;9.60;8.20;;;17.80;99.90;;;;;;5083602;27;20505;-63
2023/05/15 12:10:42;;;;;;;9.20;7.97;;;17.90;99.90;;;;;;5068483;27;20535;-62
2023/05/15 12:13:09;;;;;;;8.33;7.63;;;18.00;98.70;;;;;;5086087;28;20490;-62
2023/05/15 12:15:40;;;;;;;8.83;7.90;;;18.20;99.10;;;;;;5089906;27;20469;-63
2023/05/15 12:18:08;;;;;;;8.27;7.57;;;18.30;98.90;;;;;;5082264;28;20480;-63
2023/05/15 12:20:36;;;;;;;9.43;8.43;;;18.30;99.80;;;;;;5073686;28;21000;-63
2023/05/15 12:23:03;;;;;;;8.10;7.30;;;18.50;99.30;;;;;;5095641;28;20874;-62
2023/05/15 12:25:32;;;;;;;8.17;7.47;;;18.50;98.90;;;;;;5092680;28;20481;-62
2023/05/15 12:28:00;;;;;;;8.27;7.47;;;18.50;98.90;;;;;;5085361;28;20489;-63
2023/05/15 12:30:28;;;;;;;8.10;6.90;;;18.60;98.40;;;;;;5091438;28;20889;-63
2023/05/15 12:32:58;;;;;;;7.33;6.77;;;18.60;97.80;;;;;;5084438;28;20490;-63
2023/05/15 12:35:26;;;;;;;8.83;7.27;;;18.60;97.40;;;;;;5075796;28;20489;-63
2023/05/15 12:37:53;;;;;;;8.23;7.47;;;18.70;96.80;;;;;;5074835;28;21186;-63
2023/05/15 12:40:21;;;;;;;11.47;7.27;;;18.70;97.00;;;;;;5087039;28;20497;-63
2023/05/15 12:42:53;;;;;;;8.13;6.67;;;18.70;97.20;;;;;;5108470;27;20840;-63
2023/05/15 12:45:22;;;;;;;7.07;6.47;;;18.80;97.70;;;;;;5065681;28;20513;-63
2023/05/15 12:47:50;;;;;;;7.23;6.53;;;18.90;97.50;;;;;;5099222;28;20474;-63
2023/05/15 12:50:18;;;;;;;7.97;7.30;;;19.00;97.00;;;;;;5089678;28;21287;-63